createdAt,value
2019-01-30T00:00:57.970Z,5.05
2019-01-30T00:03:29.859Z,6.67
2019-01-30T00:06:00.468Z,6.50
2019-01-30T00:08:30.996Z,5.50
2019-01-30T00:11:01.634Z,5.50
2019-01-30T00:13:32.279Z,5.90
2019-01-30T00:16:03.923Z,6.20
2019-01-30T00:18:34.300Z,5.72
2019-01-30T00:21:04.769Z,6.25
2019-01-30T00:23:38.467Z,5.85
2019-01-30T00:26:10.639Z,6.35
2019-01-30T00:28:41.535Z,6.00
2019-01-30T00:31:12.454Z,6.30
2019-01-30T00:33:49.694Z,5.42
2019-01-30T00:36:20.091Z,5.75
2019-01-30T00:38:50.491Z,4.90
2019-01-30T00:41:20.846Z,5.67
2019-01-30T00:43:51.515Z,4.55
2019-01-30T00:46:22.651Z,4.33
2019-01-30T00:48:53.188Z,5.00
2019-01-30T00:51:23.783Z,4.65
2019-01-30T00:53:56.015Z,4.87
2019-01-30T00:56:26.417Z,4.72
2019-01-30T00:58:56.975Z,4.85
2019-01-30T01:01:27.908Z,4.35
2019-01-30T01:03:58.583Z,4.67
2019-01-30T01:06:31.595Z,5.20
2019-01-30T01:09:07.567Z,5.80
2019-01-30T01:11:37.811Z,6.08
2019-01-30T01:14:08.869Z,5.70
2019-01-30T01:16:39.584Z,5.20
2019-01-30T01:19:10.087Z,6.30
2019-01-30T01:21:40.519Z,5.50
2019-01-30T01:24:11.138Z,5.72
2019-01-30T01:26:41.870Z,7.22
2019-01-30T01:29:13.300Z,5.17
2019-01-30T01:31:43.780Z,6.30
2019-01-30T01:34:17.286Z,5.80
2019-01-30T01:36:47.883Z,4.65
2019-01-30T01:39:18.510Z,5.75
2019-01-30T01:41:49.747Z,5.05
2019-01-30T01:44:20.274Z,5.47
2019-01-30T01:46:50.757Z,6.08
2019-01-30T01:49:21.183Z,5.10
2019-01-30T01:51:54.055Z,4.65
2019-01-30T01:54:25.689Z,5.95
2019-01-30T01:56:56.143Z,6.90
2019-01-30T01:59:28.348Z,5.78
2019-01-30T02:02:01.505Z,6.58
2019-01-30T02:04:31.478Z,5.45
2019-01-30T02:07:02.498Z,5.40
2019-01-30T02:09:33.003Z,4.95
2019-01-30T02:12:04.240Z,5.28
2019-01-30T02:14:34.637Z,5.65
2019-01-30T02:17:04.950Z,6.30
2019-01-30T02:19:35.232Z,6.25
2019-01-30T02:22:05.598Z,6.30
2019-01-30T02:24:35.870Z,6.05
2019-01-30T02:27:27.832Z,5.70
2019-01-30T02:30:19.252Z,6.85
2019-01-30T02:33:08.967Z,6.08
2019-01-30T02:35:58.168Z,5.25
2019-01-30T02:38:47.859Z,5.37
2019-01-30T02:41:18.034Z,5.65
2019-01-30T02:44:07.742Z,4.78
2019-01-30T02:46:40.930Z,6.30
2019-01-30T02:49:11.053Z,5.90
2019-01-30T02:51:41.007Z,5.08
2019-01-30T02:54:30.411Z,5.40
2019-01-30T02:57:00.573Z,6.00
2019-01-30T02:59:30.462Z,6.17
2019-01-30T03:02:19.888Z,7.08
2019-01-30T03:04:50.072Z,5.33
2019-01-30T03:07:39.559Z,5.30
2019-01-30T03:10:29.665Z,6.62
2019-01-30T03:13:19.146Z,5.97
2019-01-30T03:16:08.693Z,6.10
2019-01-30T03:18:38.653Z,5.95
2019-01-30T03:21:08.627Z,6.28
2019-01-30T03:23:38.792Z,5.45
2019-01-30T03:26:28.282Z,5.58
2019-01-30T03:29:17.920Z,7.05
2019-01-30T03:31:48.093Z,6.15
2019-01-30T03:34:37.647Z,5.50
2019-01-30T03:37:27.052Z,5.30
2019-01-30T03:40:17.335Z,4.20
2019-01-30T03:43:06.861Z,5.37
2019-01-30T03:45:36.965Z,4.87
2019-01-30T03:48:06.976Z,6.50
2019-01-30T03:50:36.972Z,5.90
2019-01-30T03:53:07.158Z,5.35
2019-01-30T03:55:37.217Z,4.83
2019-01-30T03:58:26.623Z,5.70
2019-01-30T04:01:26.301Z,6.30
2019-01-30T04:03:47.733Z,6.40
2019-01-30T04:06:18.156Z,4.95
2019-01-30T04:09:07.959Z,4.95
2019-01-30T04:11:57.549Z,5.47
2019-01-30T04:14:46.947Z,5.08
2019-01-30T04:17:36.443Z,5.30
2019-01-30T04:20:25.929Z,5.87
2019-01-30T04:23:03.493Z,5.60
2019-01-30T04:25:53.034Z,5.03
2019-01-30T04:28:42.434Z,6.10
2019-01-30T04:31:38.347Z,5.17
2019-01-30T04:34:42.315Z,5.75
2019-01-30T04:37:12.338Z,5.42
2019-01-30T04:40:01.700Z,5.80
2019-01-30T04:42:31.635Z,5.30
2019-01-30T04:45:01.489Z,5.50
2019-01-30T04:47:51.299Z,5.37
2019-01-30T04:50:40.907Z,5.87
2019-01-30T04:53:10.971Z,6.30
2019-01-30T04:56:00.353Z,6.25
2019-01-30T04:58:50.000Z,5.55
2019-01-30T05:01:49.549Z,5.10
2019-01-30T05:04:52.295Z,5.85
2019-01-30T05:07:42.132Z,5.97
2019-01-30T05:10:31.697Z,6.95
2019-01-30T05:13:01.721Z,7.20
2019-01-30T05:15:31.652Z,7.12
2019-01-30T05:18:21.333Z,7.47
2019-01-30T05:20:52.176Z,6.20
2019-01-30T05:23:36.276Z,6.40
2019-01-30T05:26:06.521Z,7.15
2019-01-30T05:28:37.543Z,6.10
2019-01-30T05:31:27.528Z,6.60
2019-01-30T05:34:17.579Z,8.03
2019-01-30T05:37:07.666Z,6.03
2019-01-30T05:39:39.468Z,6.92
2019-01-30T05:42:09.623Z,6.55
2019-01-30T05:44:40.385Z,6.55
2019-01-30T05:47:10.573Z,6.15
2019-01-30T05:49:40.474Z,6.72
2019-01-30T05:52:30.096Z,5.62
2019-01-30T05:55:19.486Z,6.90
2019-01-30T05:58:09.330Z,6.83
2019-01-30T06:00:44.055Z,7.20
2019-01-30T06:03:14.464Z,6.80
2019-01-30T06:05:44.676Z,6.90
2019-01-30T06:08:14.761Z,6.25
2019-01-30T06:10:44.723Z,6.62
2019-01-30T06:13:14.991Z,6.10
2019-01-30T06:15:44.878Z,7.00
2019-01-30T06:18:34.333Z,5.80
2019-01-30T06:21:04.333Z,6.22
2019-01-30T06:23:34.489Z,7.08
2019-01-30T06:26:25.165Z,5.67
2019-01-30T06:31:50.436Z,6.25
2019-01-30T06:43:32.644Z,7.00
2019-01-30T06:46:06.312Z,6.35
2019-01-30T06:48:38.789Z,6.37
2019-01-30T06:51:28.736Z,7.08
2019-01-30T06:53:58.798Z,7.25
2019-01-30T06:56:49.087Z,6.17
2019-01-30T06:59:38.757Z,6.35
2019-01-30T07:02:32.433Z,6.33
2019-01-30T07:08:05.149Z,6.03
2019-01-30T07:10:35.504Z,6.28
2019-01-30T07:13:05.534Z,6.35
2019-01-30T07:15:55.325Z,6.12
2019-01-30T07:18:45.164Z,7.20
2019-01-30T07:21:36.832Z,6.85
2019-01-30T07:24:20.707Z,6.65
2019-01-30T07:30:12.494Z,6.80
2019-01-30T07:32:50.814Z,6.33
2019-01-30T07:35:40.440Z,6.30
2019-01-30T07:38:10.349Z,7.50
2019-01-30T07:41:00.407Z,6.05
2019-01-30T07:46:19.185Z,7.40
2019-01-30T07:48:49.894Z,8.83
2019-01-30T07:54:41.761Z,7.25
2019-01-30T07:57:12.198Z,6.35
2019-01-30T07:59:42.678Z,8.05
2019-01-30T08:02:16.224Z,6.95
2019-01-30T08:05:16.553Z,6.22
2019-01-30T08:08:08.629Z,6.55
2019-01-30T08:14:22.179Z,4.50
2019-01-30T08:16:52.688Z,4.40
2019-01-30T08:25:16.345Z,3.95
2019-01-30T08:27:47.299Z,5.05
2019-01-30T08:30:24.250Z,3.67
2019-01-30T08:33:04.213Z,4.25
2019-01-30T08:35:28.394Z,4.25
2019-01-30T08:37:58.328Z,4.05
2019-01-30T08:40:29.743Z,3.72
2019-01-30T08:42:59.821Z,4.00
2019-01-30T08:45:31.139Z,4.25
2019-01-30T08:48:01.449Z,4.08
2019-01-30T08:50:31.605Z,3.72
2019-01-30T08:53:01.681Z,4.85
2019-01-30T08:55:31.778Z,4.95
2019-01-30T08:58:01.766Z,5.70
2019-01-30T09:00:32.872Z,5.62
2019-01-30T09:03:14.578Z,7.20
2019-01-30T09:05:38.165Z,6.60
2019-01-30T09:08:08.878Z,5.35
2019-01-30T09:10:39.324Z,4.87
2019-01-30T09:13:09.529Z,5.40
2019-01-30T09:15:39.888Z,5.40
2019-01-30T09:18:12.011Z,4.95
2019-01-30T09:20:51.185Z,5.20
2019-01-30T09:23:23.415Z,5.95
2019-01-30T09:25:56.863Z,4.78
2019-01-30T09:28:27.039Z,7.97
2019-01-30T09:30:57.071Z,5.30
2019-01-30T09:33:27.259Z,5.60
2019-01-30T09:35:57.739Z,4.70
2019-01-30T09:38:27.780Z,5.05
2019-01-30T09:40:58.124Z,5.20
2019-01-30T09:43:30.621Z,6.80
2019-01-30T09:46:00.488Z,10.18
2019-01-30T09:48:30.474Z,7.47
2019-01-30T09:51:00.456Z,6.30
2019-01-30T09:53:30.482Z,5.53
2019-01-30T09:56:00.630Z,4.65
2019-01-30T09:58:30.682Z,4.30
2019-01-30T10:01:00.750Z,4.30
2019-01-30T10:03:36.347Z,2.45
2019-01-30T10:06:02.736Z,2.30
2019-01-30T10:08:32.656Z,2.45
2019-01-30T10:11:03.264Z,2.17
2019-01-30T10:13:33.285Z,1.75
2019-01-30T10:16:03.584Z,1.70
2019-01-30T10:18:33.715Z,2.05
2019-01-30T10:21:03.973Z,1.90
2019-01-30T10:23:34.290Z,1.55
2019-01-30T10:26:04.399Z,1.87
2019-01-30T10:28:34.219Z,2.00
2019-01-30T10:31:04.295Z,1.90
2019-01-30T10:33:34.503Z,1.70
2019-01-30T10:36:05.162Z,2.17
2019-01-30T10:38:35.115Z,1.40
2019-01-30T10:41:05.136Z,1.60
2019-01-30T10:43:35.082Z,1.82
2019-01-30T10:46:05.151Z,1.20
2019-01-30T10:48:36.544Z,0.95
2019-01-30T10:51:07.393Z,1.10
2019-01-30T10:53:37.760Z,1.15
2019-01-30T10:56:07.618Z,0.90
2019-01-30T10:58:37.578Z,1.30
2019-01-30T11:01:07.491Z,1.45
2019-01-30T11:03:37.636Z,1.80
2019-01-30T11:06:07.652Z,1.25
2019-01-30T11:08:37.667Z,1.45
2019-01-30T11:11:08.401Z,1.77
2019-01-30T11:13:38.353Z,1.47
2019-01-30T11:16:08.342Z,1.30
2019-01-30T11:18:38.472Z,1.40
2019-01-30T11:21:08.583Z,1.35
2019-01-30T11:23:38.550Z,1.30
2019-01-30T11:26:08.555Z,0.70
2019-01-30T11:28:38.471Z,1.42
2019-01-30T11:31:08.538Z,1.50
2019-01-30T11:33:38.689Z,1.42
2019-01-30T11:36:08.629Z,0.78
2019-01-30T11:38:38.467Z,0.95
2019-01-30T11:41:08.312Z,0.70
2019-01-30T11:43:38.249Z,1.02
2019-01-30T11:46:08.320Z,0.90
2019-01-30T11:48:38.325Z,1.00
2019-01-30T11:51:08.219Z,0.60
2019-01-30T11:53:38.221Z,0.80
2019-01-30T11:56:08.275Z,1.00
2019-01-30T11:58:38.098Z,1.32
2019-01-30T12:01:08.110Z,0.70
2019-01-30T12:03:37.978Z,0.50
2019-01-30T12:06:07.889Z,0.53
2019-01-30T12:08:37.820Z,0.65
2019-01-30T12:11:07.731Z,0.80
2019-01-30T12:13:37.738Z,0.60
2019-01-30T12:16:07.576Z,0.78
2019-01-30T12:18:37.815Z,0.78
2019-01-30T12:21:07.775Z,0.78
2019-01-30T12:23:37.718Z,0.60
2019-01-30T12:26:07.806Z,0.68
2019-01-30T12:28:38.039Z,0.80
2019-01-30T12:31:08.100Z,0.70
2019-01-30T12:33:38.467Z,0.50
2019-01-30T12:36:08.574Z,0.70
2019-01-30T12:38:38.457Z,0.60
2019-01-30T12:41:08.685Z,0.65
2019-01-30T12:43:38.724Z,0.85
2019-01-30T12:46:08.711Z,0.75
2019-01-30T12:48:38.995Z,0.60
2019-01-30T12:51:09.166Z,0.53
2019-01-30T12:53:39.152Z,0.60
2019-01-30T12:56:09.335Z,0.82
2019-01-30T12:58:39.320Z,1.00
2019-01-30T13:01:09.512Z,1.05
2019-01-30T13:03:39.495Z,1.00
2019-01-30T13:06:09.494Z,0.90
2019-01-30T13:08:39.569Z,0.90
2019-01-30T13:11:09.609Z,0.85
2019-01-30T13:13:39.744Z,0.70
2019-01-30T13:16:10.074Z,0.95
2019-01-30T13:18:40.126Z,0.88
2019-01-30T13:21:10.114Z,0.95
2019-01-30T13:23:45.107Z,1.17
2019-01-30T13:26:15.069Z,1.07
2019-01-30T13:28:45.477Z,1.15
2019-01-30T13:31:15.699Z,1.20
2019-01-30T13:33:45.612Z,0.80
2019-01-30T13:36:15.533Z,1.27
2019-01-30T13:38:45.546Z,0.80
2019-01-30T13:41:15.432Z,1.35
2019-01-30T13:43:45.359Z,0.78
2019-01-30T13:46:15.485Z,0.65
2019-01-30T13:48:45.614Z,0.90
2019-01-30T13:51:15.522Z,0.70
2019-01-30T13:53:45.588Z,0.90
2019-01-30T13:56:15.468Z,0.90
2019-01-30T13:58:45.673Z,1.05
2019-01-30T14:01:17.602Z,1.10
2019-01-30T14:03:48.048Z,1.05
2019-01-30T14:06:18.053Z,0.88
2019-01-30T14:08:48.234Z,0.55
2019-01-30T14:11:18.648Z,1.22
2019-01-30T14:13:48.766Z,0.85
2019-01-30T14:16:18.677Z,1.10
2019-01-30T14:18:48.723Z,1.15
2019-01-30T14:21:19.021Z,0.80
2019-01-30T14:23:49.498Z,2.17
2019-01-30T14:26:19.588Z,1.00
2019-01-30T14:28:52.530Z,1.00
2019-01-30T14:32:01.705Z,0.80
2019-01-30T14:35:10.070Z,0.85
2019-01-30T14:38:37.793Z,1.05
2019-01-30T14:41:07.330Z,1.00
2019-01-30T14:43:57.628Z,1.00
2019-01-30T14:46:49.159Z,1.00
2019-01-30T14:49:39.711Z,1.17
2019-01-30T14:52:30.164Z,1.20
2019-01-30T14:57:53.337Z,1.05
2019-01-30T15:00:46.638Z,0.88
2019-01-30T15:03:18.767Z,1.00
2019-01-30T15:06:09.020Z,1.72
2019-01-30T15:08:41.081Z,1.10
2019-01-30T15:11:12.259Z,1.45
2019-01-30T15:14:02.355Z,1.30
2019-01-30T15:16:52.578Z,1.12
2019-01-30T15:19:42.923Z,1.30
2019-01-30T15:22:32.921Z,1.50
2019-01-30T15:25:16.212Z,1.22
2019-01-30T15:28:05.287Z,1.90
2019-01-30T15:30:56.478Z,1.60
2019-01-30T15:33:27.374Z,1.22
2019-01-30T15:35:58.682Z,1.50
2019-01-30T15:38:48.557Z,1.20
2019-01-30T15:41:18.902Z,1.20
2019-01-30T15:43:49.320Z,1.30
2019-01-30T15:46:33.753Z,1.45
2019-01-30T15:49:23.272Z,1.35
2019-01-30T15:51:53.724Z,1.62
2019-01-30T15:54:23.941Z,1.30
2019-01-30T15:56:54.070Z,1.70
2019-01-30T16:02:18.808Z,1.02
2019-01-30T16:04:49.223Z,1.40
2019-01-30T16:07:19.526Z,1.35
2019-01-30T16:10:10.647Z,1.37
2019-01-30T16:12:47.583Z,1.40
2019-01-30T16:15:31.545Z,1.50
2019-01-30T16:18:22.670Z,1.30
2019-01-30T16:21:04.087Z,2.00
2019-01-30T16:23:55.107Z,1.35
2019-01-30T16:26:25.989Z,1.70
2019-01-30T16:28:56.777Z,1.22
2019-01-30T16:34:29.896Z,1.25
2019-01-30T16:37:00.830Z,1.50
2019-01-30T16:42:54.448Z,1.60
2019-01-30T16:49:04.399Z,2.60
2019-01-30T16:54:57.117Z,2.55
2019-01-30T16:57:28.259Z,1.92
2019-01-30T17:03:15.322Z,1.35
2019-01-30T17:05:46.703Z,2.10
2019-01-30T17:08:22.688Z,1.62
2019-01-30T17:10:57.268Z,1.45
2019-01-30T17:13:58.950Z,1.80
2019-01-30T17:16:32.544Z,1.82
2019-01-30T17:19:08.342Z,1.77
2019-01-30T17:22:00.344Z,1.67
2019-01-30T17:24:32.438Z,1.80
2019-01-30T17:27:02.597Z,2.00
2019-01-30T17:32:28.348Z,2.10
2019-01-30T17:35:01.090Z,1.50
2019-01-30T17:37:31.569Z,1.85
2019-01-30T17:43:04.493Z,2.17
2019-01-30T17:48:14.267Z,2.00
2019-01-30T17:50:44.609Z,2.35
2019-01-30T17:53:14.994Z,1.65
2019-01-30T17:55:49.997Z,2.85
2019-01-30T18:03:51.845Z,2.00
2019-01-30T18:43:15.323Z,2.08
2019-01-30T18:45:47.147Z,2.50
2019-01-30T18:48:40.071Z,1.77
2019-01-30T18:51:31.422Z,1.90
2019-01-30T19:05:38.656Z,1.60
2019-01-30T19:14:34.943Z,2.25
2019-01-30T19:17:55.132Z,1.98
2019-01-30T19:20:49.399Z,2.20
2019-01-30T19:23:19.931Z,2.25
2019-01-30T19:25:50.390Z,2.33
2019-01-30T19:28:39.874Z,2.10
2019-01-30T19:31:10.107Z,3.27
2019-01-30T19:33:40.344Z,3.08
2019-01-30T19:36:10.393Z,2.47
2019-01-30T19:39:00.009Z,2.42
2019-01-30T19:41:30.081Z,2.90
2019-01-30T19:44:00.430Z,3.20
2019-01-30T19:46:50.797Z,2.58
2019-01-30T19:49:40.650Z,2.70
2019-01-30T19:52:11.382Z,2.33
2019-01-30T19:54:43.805Z,2.10
2019-01-30T19:57:35.494Z,3.05
2019-01-30T20:00:28.107Z,3.83
2019-01-30T20:03:22.832Z,3.20
2019-01-30T20:05:53.011Z,2.45
2019-01-30T20:08:42.538Z,1.92
2019-01-30T20:11:32.407Z,2.00
2019-01-30T20:14:22.251Z,1.60
2019-01-30T20:17:12.281Z,1.98
2019-01-30T20:20:02.364Z,1.60
2019-01-30T20:22:33.015Z,2.27
2019-01-30T20:25:17.768Z,1.70
2019-01-30T20:27:48.195Z,2.40
2019-01-30T20:30:38.221Z,1.80
2019-01-30T20:33:28.525Z,1.90
2019-01-30T20:39:06.807Z,2.52
2019-01-30T20:41:57.237Z,2.00
2019-01-30T20:44:27.374Z,2.20
2019-01-30T20:47:19.089Z,2.25
2019-01-30T20:49:50.690Z,1.72
2019-01-30T20:52:40.761Z,2.50
2019-01-30T20:55:33.268Z,2.92
2019-01-30T20:58:03.794Z,2.42
2019-01-30T21:00:53.784Z,1.85
2019-01-30T21:03:47.275Z,1.95
2019-01-30T21:06:17.869Z,2.00
2019-01-30T21:08:48.060Z,1.82
2019-01-30T21:11:38.458Z,2.37
2019-01-30T21:14:09.223Z,2.50
2019-01-30T21:16:59.439Z,2.50
2019-01-30T21:22:40.983Z,2.45
2019-01-30T21:25:24.942Z,2.25
2019-01-30T21:27:55.640Z,2.65
2019-01-30T21:30:45.227Z,2.30
2019-01-30T21:33:35.338Z,2.52
2019-01-30T21:36:24.896Z,3.65
2019-01-30T21:39:14.884Z,3.02
2019-01-30T21:41:46.768Z,3.42
2019-01-30T21:44:36.370Z,4.05
2019-01-30T21:47:06.567Z,2.62
2019-01-30T21:52:34.132Z,3.58
2019-01-30T21:55:26.250Z,2.75
2019-01-30T21:57:56.859Z,2.92
2019-01-30T22:00:45.344Z,3.30
2019-01-30T22:03:15.599Z,3.00
2019-01-30T22:06:05.619Z,3.05
2019-01-30T22:08:36.016Z,2.90
2019-01-30T22:11:06.361Z,3.55
2019-01-30T22:13:36.476Z,3.20
2019-01-30T22:16:26.088Z,3.45
2019-01-30T22:19:15.600Z,2.98
2019-01-30T22:22:05.184Z,3.10
2019-01-30T22:24:35.716Z,3.00
2019-01-30T22:27:25.137Z,4.97
2019-01-30T22:29:55.314Z,3.62
2019-01-30T22:32:25.444Z,3.40
2019-01-30T22:34:55.900Z,4.33
2019-01-30T22:37:25.961Z,3.22
2019-01-30T22:40:17.556Z,4.20
2019-01-30T22:43:07.146Z,3.77
2019-01-30T22:45:57.895Z,3.77
2019-01-30T22:48:52.472Z,3.45
2019-01-30T22:51:42.004Z,3.05
2019-01-30T22:54:31.780Z,3.80
2019-01-30T22:57:03.127Z,4.70
2019-01-30T22:59:33.470Z,3.85
2019-01-30T23:02:23.382Z,3.60
2019-01-30T23:05:45.956Z,3.27
2019-01-30T23:08:57.650Z,3.70
2019-01-30T23:12:13.814Z,5.72
2019-01-30T23:15:10.321Z,3.92
2019-01-30T23:18:38.726Z,3.55
2019-01-30T23:25:36.962Z,3.45
2019-01-30T23:28:28.036Z,3.87
2019-01-30T23:31:40.588Z,4.78
2019-01-30T23:41:30.717Z,3.87
2019-01-30T23:44:48.233Z,3.12
2019-01-30T23:48:16.607Z,3.35
2019-01-30T23:51:50.949Z,3.35
2019-01-30T23:55:21.490Z,3.55
2019-01-30T23:58:49.946Z,3.58
